Time;durP1;ratioP1;P1;durP2;ratioP2;P2;SDS_P1;SDS_P2;PMS_P1;PMS_P2;Temp;Humidity;BMP_temperature;BMP_pressure;BME280_temperature;BME280_humidity;BME280_pressure;Samples;Min_cycle;Max_cycle;Signal;HPM_P1;HPM_P2
2023/09/08 00:01:50;;;;;;;11.32;8.77;;;19.80;99.90;;;;;;5000948;28;20050;-57
2023/09/08 00:04:15;;;;;;;9.95;9.05;;;19.70;99.90;;;;;;5001656;28;20098;-57
2023/09/08 00:06:41;;;;;;;10.98;8.77;;;19.70;99.90;;;;;;4988519;28;20044;-57
2023/09/08 00:09:08;;;;;;;11.75;8.43;;;19.60;99.90;;;;;;5007470;28;20042;-58
2023/09/08 00:11:33;;;;;;;9.52;8.63;;;19.60;99.90;;;;;;5000844;28;20611;-57
2023/09/08 00:13:59;;;;;;;9.25;8.32;;;19.60;99.90;;;;;;5003768;28;20049;-57
2023/09/08 00:16:25;;;;;;;9.68;8.63;;;19.50;99.90;;;;;;5001221;28;20044;-57
2023/09/08 00:18:50;;;;;;;11.63;9.30;;;19.50;99.90;;;;;;4999922;28;20553;-57
2023/09/08 00:21:16;;;;;;;10.23;8.32;;;19.50;99.90;;;;;;5020601;28;20072;-57
2023/09/08 00:23:42;;;;;;;10.63;8.95;;;19.50;99.90;;;;;;4999169;28;20038;-57
2023/09/08 00:26:08;;;;;;;13.15;8.45;;;19.40;99.90;;;;;;5000993;28;20408;-57
2023/09/08 00:28:33;;;;;;;12.32;9.48;;;19.40;99.90;;;;;;5011586;28;20050;-57
2023/09/08 00:31:02;;;;;;;10.95;9.85;;;19.40;99.90;;;;;;5001201;28;20046;-57
2023/09/08 00:33:27;;;;;;;13.50;10.02;;;19.40;99.90;;;;;;5002722;28;20029;-57
2023/09/08 00:35:56;;;;;;;10.30;9.25;;;19.40;99.90;;;;;;4986310;28;20056;-56
2023/09/08 00:38:22;;;;;;;11.25;9.25;;;19.30;99.90;;;;;;5002996;28;20602;-57
2023/09/08 00:40:48;;;;;;;11.57;9.70;;;19.30;99.90;;;;;;4997289;28;20049;-57
2023/09/08 00:43:14;;;;;;;10.55;9.20;;;19.30;99.90;;;;;;5000248;28;20049;-57
2023/09/08 00:45:41;;;;;;;12.20;10.45;;;19.20;99.90;;;;;;5001131;28;20056;-56
2023/09/08 00:48:08;;;;;;;10.77;9.68;;;19.20;99.90;;;;;;5001918;28;20077;-57
2023/09/08 00:50:35;;;;;;;12.07;10.77;;;19.20;99.90;;;;;;4983074;28;20297;-57
2023/09/08 00:53:02;;;;;;;9.40;8.48;;;19.20;99.90;;;;;;5002574;28;20501;-56
2023/09/08 00:55:28;;;;;;;10.82;9.70;;;19.20;99.90;;;;;;4982490;28;20034;-57
2023/09/08 00:57:53;;;;;;;11.85;9.95;;;19.20;99.90;;;;;;4999884;28;20049;-57
2023/09/08 01:00:22;;;;;;;12.40;11.10;;;19.20;99.90;;;;;;5016332;28;20049;-57
2023/09/08 01:02:48;;;;;;;10.43;9.32;;;19.10;99.90;;;;;;5001766;28;20521;-57
2023/09/08 01:05:14;;;;;;;11.18;9.13;;;19.10;99.90;;;;;;4986112;28;20053;-58
2023/09/08 01:07:41;;;;;;;12.18;9.90;;;19.10;99.90;;;;;;4983430;28;20104;-57
2023/09/08 01:10:07;;;;;;;12.93;10.55;;;19.10;99.90;;;;;;5001747;28;20703;-57
2023/09/08 01:12:34;;;;;;;10.63;9.57;;;19.10;99.90;;;;;;5011643;28;20128;-57
2023/09/08 01:15:01;;;;;;;10.73;9.60;;;19.10;99.90;;;;;;4998024;28;20210;-57
2023/09/08 01:17:27;;;;;;;10.80;9.80;;;19.10;99.90;;;;;;5002439;28;20495;-58
2023/09/08 01:19:56;;;;;;;10.68;9.57;;;19.00;99.90;;;;;;5000301;28;20205;-58
2023/09/08 01:22:29;;;;;;;11.05;9.45;;;19.00;99.90;;;;;;4999770;28;20493;-57
2023/09/08 01:25:13;;;;;;;12.18;9.82;;;19.00;99.90;;;;;;5000819;28;20046;-57
2023/09/08 01:27:43;;;;;;;12.20;10.88;;;19.00;99.90;;;;;;5000170;28;20596;-57
2023/09/08 01:30:10;;;;;;;13.85;9.82;;;19.00;99.90;;;;;;4996886;28;20335;-57
2023/09/08 01:32:36;;;;;;;13.93;9.63;;;19.00;99.90;;;;;;4999734;28;20045;-57
2023/09/08 01:35:02;;;;;;;11.85;10.65;;;19.00;99.90;;;;;;4998933;28;20089;-58
2023/09/08 01:37:28;;;;;;;11.30;9.70;;;19.00;99.90;;;;;;4999873;28;20073;-57
2023/09/08 01:39:53;;;;;;;8.90;8.00;;;18.90;99.90;;;;;;5001900;28;20542;-57
2023/09/08 01:42:19;;;;;;;10.88;9.40;;;18.90;99.90;;;;;;4999541;28;20041;-58
2023/09/08 01:44:45;;;;;;;13.35;10.35;;;18.90;99.90;;;;;;4999898;28;20049;-58
2023/09/08 01:47:10;;;;;;;11.63;10.43;;;18.80;99.90;;;;;;4995253;28;20509;-57
2023/09/08 01:49:36;;;;;;;11.45;9.98;;;18.80;99.90;;;;;;4979584;28;20044;-57
2023/09/08 01:52:02;;;;;;;11.27;10.05;;;18.80;99.90;;;;;;5004216;28;20056;-58
2023/09/08 01:54:28;;;;;;;11.60;10.40;;;18.80;99.90;;;;;;5001725;28;20041;-56
2023/09/08 01:56:53;;;;;;;16.33;10.50;;;18.80;99.90;;;;;;4984907;28;20041;-57
2023/09/08 01:59:19;;;;;;;12.45;10.13;;;18.70;99.90;;;;;;4998995;28;20462;-56
2023/09/08 02:01:45;;;;;;;13.90;11.85;;;18.70;99.90;;;;;;4998692;28;20053;-56
2023/09/08 02:04:10;;;;;;;12.90;10.95;;;18.80;99.90;;;;;;5012888;28;20053;-57
2023/09/08 02:06:36;;;;;;;13.48;11.02;;;18.70;99.90;;;;;;5014036;28;20497;-56
2023/09/08 02:09:02;;;;;;;12.20;10.93;;;18.70;99.90;;;;;;4999284;28;20185;-57
2023/09/08 02:11:27;;;;;;;12.10;10.80;;;18.70;99.90;;;;;;5015993;28;20128;-56
2023/09/08 02:13:53;;;;;;;12.13;10.82;;;18.60;99.90;;;;;;4999699;28;20558;-56
2023/09/08 02:16:19;;;;;;;12.75;10.70;;;18.60;99.90;;;;;;4982377;28;20042;-56
2023/09/08 02:18:45;;;;;;;12.15;10.25;;;18.60;99.90;;;;;;5000093;28;20037;-56
2023/09/08 02:21:11;;;;;;;12.63;10.20;;;18.60;99.90;;;;;;4996253;28;20096;-57
2023/09/08 02:23:37;;;;;;;13.40;9.82;;;18.60;99.90;;;;;;5000865;28;20081;-57
2023/09/08 02:26:03;;;;;;;13.65;11.32;;;18.60;99.90;;;;;;5002413;28;20112;-56
2023/09/08 02:28:29;;;;;;;12.95;11.35;;;18.50;99.90;;;;;;5000544;28;20334;-56
2023/09/08 02:30:56;;;;;;;11.43;10.23;;;18.50;99.90;;;;;;4985048;28;20045;-55
2023/09/08 02:33:21;;;;;;;12.50;10.88;;;18.40;99.90;;;;;;5003688;28;20092;-55
2023/09/08 02:35:47;;;;;;;13.35;11.15;;;18.40;99.90;;;;;;5000430;28;20050;-56
2023/09/08 02:38:13;;;;;;;12.60;10.65;;;18.30;99.90;;;;;;4998440;28;20048;-56
2023/09/08 02:40:38;;;;;;;13.02;11.77;;;18.30;99.90;;;;;;5002741;28;20373;-56
2023/09/08 02:43:04;;;;;;;12.23;11.00;;;18.20;99.90;;;;;;4999932;28;20668;-57
2023/09/08 02:45:30;;;;;;;13.25;11.95;;;18.20;99.90;;;;;;4977141;28;20050;-55
2023/09/08 02:47:56;;;;;;;13.55;12.13;;;18.20;99.90;;;;;;5000692;28;20053;-56
2023/09/08 02:50:22;;;;;;;13.38;11.98;;;18.10;99.90;;;;;;4985915;28;20096;-56
2023/09/08 02:52:48;;;;;;;12.77;10.77;;;18.10;99.90;;;;;;5015551;28;20042;-56
2023/09/08 02:55:14;;;;;;;15.35;13.00;;;18.10;99.90;;;;;;5019621;28;20056;-56
2023/09/08 02:57:40;;;;;;;12.40;11.15;;;18.10;99.90;;;;;;5021098;28;20073;-56
2023/09/08 03:00:07;;;;;;;13.82;12.45;;;18.00;99.90;;;;;;5005264;28;20492;-56
2023/09/08 03:02:33;;;;;;;12.18;10.98;;;18.00;99.90;;;;;;5004547;28;20520;-57
2023/09/08 03:05:00;;;;;;;12.75;11.43;;;18.00;99.90;;;;;;5003853;28;20099;-57
2023/09/08 03:07:26;;;;;;;14.52;12.90;;;18.00;99.90;;;;;;5000939;28;20593;-56
2023/09/08 03:09:52;;;;;;;12.60;11.27;;;18.00;99.90;;;;;;5003478;28;20065;-57
2023/09/08 03:12:18;;;;;;;13.77;11.75;;;17.90;99.90;;;;;;5002660;28;20413;-57
2023/09/08 03:14:47;;;;;;;12.65;10.93;;;17.90;99.90;;;;;;5015640;28;20053;-56
2023/09/08 03:17:12;;;;;;;14.60;12.18;;;17.90;99.90;;;;;;5003653;28;20115;-55
2023/09/08 03:19:39;;;;;;;13.13;11.27;;;17.90;99.90;;;;;;5001897;28;20053;-57
2023/09/08 03:22:04;;;;;;;14.73;12.85;;;17.90;99.90;;;;;;4991901;28;20048;-56
2023/09/08 03:24:30;;;;;;;12.63;10.90;;;17.90;99.90;;;;;;5003032;28;20037;-57
2023/09/08 03:26:57;;;;;;;13.15;11.73;;;17.80;99.90;;;;;;5018787;28;20470;-56
2023/09/08 03:29:23;;;;;;;13.57;12.27;;;17.80;99.90;;;;;;5014318;28;20520;-56
2023/09/08 03:31:49;;;;;;;15.95;13.15;;;17.80;99.90;;;;;;4988741;28;20099;-56
2023/09/08 03:34:15;;;;;;;13.70;11.38;;;17.80;99.90;;;;;;4988478;28;20050;-57
2023/09/08 03:36:41;;;;;;;14.32;12.82;;;17.80;99.90;;;;;;5001965;28;20464;-57
2023/09/08 03:39:09;;;;;;;15.30;12.23;;;17.80;99.90;;;;;;4998869;28;20056;-57
2023/09/08 03:41:35;;;;;;;13.65;11.48;;;17.70;99.90;;;;;;5003785;28;20052;-56
2023/09/08 03:44:00;;;;;;;16.05;11.70;;;17.70;99.90;;;;;;5002450;28;20049;-57
2023/09/08 03:46:26;;;;;;;15.13;13.63;;;17.70;99.90;;;;;;5008197;28;20041;-55
2023/09/08 03:48:54;;;;;;;16.42;13.90;;;17.70;99.90;;;;;;5007675;28;20042;-57
2023/09/08 03:51:20;;;;;;;13.07;11.73;;;17.60;99.90;;;;;;4992375;28;20049;-57
2023/09/08 03:53:45;;;;;;;13.20;12.00;;;17.60;99.90;;;;;;4991134;28;20049;-56
2023/09/08 03:56:11;;;;;;;15.45;13.50;;;17.60;99.90;;;;;;5006548;28;20411;-56
2023/09/08 03:58:37;;;;;;;14.68;13.30;;;17.50;99.90;;;;;;4976707;28;20140;-56
2023/09/08 04:01:02;;;;;;;17.85;13.30;;;17.50;99.90;;;;;;5003208;28;20042;-55
2023/09/08 04:03:28;;;;;;;15.27;12.85;;;17.50;99.90;;;;;;4981672;28;20137;-56
2023/09/08 04:05:54;;;;;;;14.73;12.25;;;17.50;99.90;;;;;;4999518;28;20092;-56
2023/09/08 04:08:19;;;;;;;14.43;13.02;;;17.50;99.90;;;;;;4998790;28;20046;-56
2023/09/08 04:10:45;;;;;;;15.15;13.60;;;17.40;99.90;;;;;;4988369;28;20058;-56
2023/09/08 04:13:11;;;;;;;14.77;13.18;;;17.40;99.90;;;;;;4998829;28;22203;-56
2023/09/08 04:15:36;;;;;;;15.52;13.90;;;17.40;99.90;;;;;;5017360;28;20579;-56
2023/09/08 04:18:02;;;;;;;15.77;14.23;;;17.40;99.90;;;;;;5005464;28;20055;-56
2023/09/08 04:20:28;;;;;;;14.38;12.63;;;17.40;99.90;;;;;;5014288;28;20108;-55
2023/09/08 04:22:54;;;;;;;14.00;12.38;;;17.40;99.90;;;;;;5003275;28;20041;-57
2023/09/08 04:25:20;;;;;;;16.85;13.55;;;17.40;99.90;;;;;;5003992;28;20077;-56
2023/09/08 04:27:45;;;;;;;15.55;13.68;;;17.40;99.90;;;;;;5003816;28;20046;-56
2023/09/08 04:30:12;;;;;;;15.10;13.20;;;17.40;99.90;;;;;;4997489;28;20046;-56
2023/09/08 04:32:38;;;;;;;13.57;12.18;;;17.40;99.90;;;;;;4999594;28;20532;-57
2023/09/08 04:35:04;;;;;;;14.57;12.40;;;17.40;99.90;;;;;;5004259;28;20045;-55
2023/09/08 04:37:30;;;;;;;16.27;13.43;;;17.30;99.90;;;;;;5001934;28;20459;-56
2023/09/08 04:39:57;;;;;;;15.13;13.57;;;17.30;99.90;;;;;;5000508;28;20053;-57
2023/09/08 04:42:23;;;;;;;16.00;13.77;;;17.30;99.90;;;;;;4999303;28;20104;-57
2023/09/08 04:44:49;;;;;;;14.27;12.85;;;17.30;99.90;;;;;;4963755;28;20049;-57
2023/09/08 04:47:15;;;;;;;15.90;12.60;;;17.30;99.90;;;;;;5000856;28;20147;-55
2023/09/08 04:49:41;;;;;;;16.88;14.00;;;17.20;99.90;;;;;;5001658;28;20061;-56
2023/09/08 04:52:07;;;;;;;14.45;12.75;;;17.20;99.90;;;;;;5003555;28;20068;-56
2023/09/08 04:54:32;;;;;;;13.90;12.15;;;17.20;99.90;;;;;;5012773;28;20042;-56
2023/09/08 04:56:58;;;;;;;16.63;14.55;;;17.20;99.90;;;;;;5004421;28;20049;-56
2023/09/08 04:59:24;;;;;;;16.50;14.68;;;17.20;99.90;;;;;;4982870;28;20046;-57
2023/09/08 05:01:50;;;;;;;17.40;14.35;;;17.20;99.90;;;;;;5002409;28;20049;-57
2023/09/08 05:04:18;;;;;;;15.15;13.55;;;17.20;99.90;;;;;;5001093;28;20061;-56
2023/09/08 05:06:43;;;;;;;16.63;14.85;;;17.20;99.90;;;;;;5001238;28;20064;-56
2023/09/08 05:09:09;;;;;;;14.75;13.20;;;17.20;99.90;;;;;;5014503;28;20271;-56
2023/09/08 05:11:35;;;;;;;15.20;12.90;;;17.10;99.90;;;;;;4987156;28;20038;-56
2023/09/08 05:14:02;;;;;;;14.82;13.18;;;17.10;99.90;;;;;;4982298;28;20054;-58
2023/09/08 05:16:44;;;;;;;14.52;12.18;;;17.20;99.90;;;;;;5001406;28;20046;-56
2023/09/08 05:19:10;;;;;;;14.18;12.43;;;17.10;99.90;;;;;;4987465;28;20057;-57
2023/09/08 05:21:40;;;;;;;17.05;15.27;;;17.10;99.90;;;;;;4984001;28;20269;-54
2023/09/08 05:24:06;;;;;;;15.85;14.00;;;17.10;99.90;;;;;;4982914;28;20073;-57
2023/09/08 05:26:34;;;;;;;14.95;13.38;;;17.10;99.90;;;;;;5003067;28;20065;-57
2023/09/08 05:28:59;;;;;;;16.00;13.70;;;17.00;99.90;;;;;;5001760;28;20515;-56
2023/09/08 05:31:26;;;;;;;16.15;14.15;;;17.00;99.90;;;;;;4997693;28;20034;-56
2023/09/08 05:33:51;;;;;;;15.65;13.88;;;17.00;99.90;;;;;;5004146;28;20050;-57
2023/09/08 05:36:17;;;;;;;17.58;13.65;;;17.00;99.90;;;;;;5001334;28;20358;-56
2023/09/08 05:38:43;;;;;;;14.13;12.68;;;17.00;99.90;;;;;;5000408;28;20440;-57
2023/09/08 05:41:08;;;;;;;14.50;13.02;;;17.10;99.90;;;;;;4987414;28;20099;-58
2023/09/08 05:43:34;;;;;;;16.52;13.98;;;17.10;99.90;;;;;;4985621;28;20448;-58
2023/09/08 05:46:00;;;;;;;14.73;13.32;;;17.10;99.90;;;;;;5013283;28;20046;-56
2023/09/08 05:48:26;;;;;;;13.15;11.82;;;17.20;99.90;;;;;;5003284;28;20519;-57
2023/09/08 05:50:52;;;;;;;15.20;13.60;;;17.20;99.90;;;;;;5005442;28;20296;-57
2023/09/08 05:53:17;;;;;;;14.98;13.25;;;17.20;99.90;;;;;;4985895;28;20045;-57
2023/09/08 05:55:43;;;;;;;15.25;12.88;;;17.30;99.90;;;;;;4983170;28;20034;-57
2023/09/08 05:58:10;;;;;;;14.18;12.25;;;17.40;99.90;;;;;;5015371;28;20045;-57
2023/09/08 06:00:36;;;;;;;14.77;12.52;;;17.50;99.90;;;;;;4984380;28;20101;-56
2023/09/08 06:03:02;;;;;;;13.73;12.32;;;17.50;99.90;;;;;;5009353;28;20029;-57
2023/09/08 06:05:28;;;;;;;14.70;13.15;;;17.60;99.90;;;;;;5011032;28;20187;-57
2023/09/08 06:07:54;;;;;;;16.15;12.07;;;17.60;99.90;;;;;;4990885;28;20046;-57
2023/09/08 06:10:20;;;;;;;14.27;12.77;;;17.70;99.90;;;;;;5010390;28;20497;-56
2023/09/08 06:12:45;;;;;;;13.75;12.25;;;17.70;99.90;;;;;;4999040;28;20510;-57
2023/09/08 06:15:11;;;;;;;14.52;13.00;;;17.80;99.90;;;;;;5000100;28;20195;-55
2023/09/08 06:17:37;;;;;;;15.35;12.70;;;17.90;99.90;;;;;;5006119;28;20053;-58
2023/09/08 06:20:03;;;;;;;12.75;11.43;;;17.90;99.90;;;;;;5000781;28;20056;-57
2023/09/08 06:22:28;;;;;;;14.15;12.70;;;18.00;99.90;;;;;;5005688;28;20049;-55
2023/09/08 06:24:54;;;;;;;13.98;12.57;;;18.10;99.90;;;;;;5006532;28;20057;-57
2023/09/08 06:27:20;;;;;;;15.55;13.80;;;18.10;99.90;;;;;;5017085;28;20041;-57
2023/09/08 06:29:46;;;;;;;14.65;12.88;;;18.20;99.90;;;;;;4992114;28;20101;-57
2023/09/08 06:32:11;;;;;;;13.02;11.73;;;18.30;99.90;;;;;;5004385;28;20350;-57
2023/09/08 06:34:37;;;;;;;15.80;10.88;;;18.40;99.90;;;;;;4986880;28;20041;-58
2023/09/08 06:37:03;;;;;;;12.50;11.20;;;18.40;99.90;;;;;;5013796;28;20329;-59
2023/09/08 06:39:29;;;;;;;13.02;10.60;;;18.60;99.90;;;;;;4999506;28;20045;-58
2023/09/08 06:41:55;;;;;;;12.15;10.80;;;18.70;99.90;;;;;;4987462;28;20069;-58
2023/09/08 06:44:21;;;;;;;13.32;11.27;;;18.80;99.90;;;;;;5008913;28;20050;-59
2023/09/08 06:46:47;;;;;;;13.05;11.35;;;18.80;99.90;;;;;;5006763;28;20042;-58
2023/09/08 06:49:12;;;;;;;13.88;12.02;;;18.90;99.90;;;;;;5001999;28;20053;-58
2023/09/08 06:51:38;;;;;;;13.95;12.55;;;19.00;99.90;;;;;;4989320;28;20072;-58
2023/09/08 06:54:04;;;;;;;12.90;11.25;;;19.10;99.90;;;;;;4990566;28;20046;-58
2023/09/08 06:56:30;;;;;;;12.82;11.60;;;19.20;99.90;;;;;;4986421;28;20326;-58
2023/09/08 06:58:57;;;;;;;16.30;11.80;;;19.30;99.90;;;;;;5020028;28;20505;-58
2023/09/08 07:01:24;;;;;;;13.95;11.63;;;19.40;99.90;;;;;;4982916;28;20065;-59
2023/09/08 07:03:50;;;;;;;15.75;12.57;;;19.50;99.90;;;;;;5004083;28;20054;-59
2023/09/08 07:06:16;;;;;;;12.88;11.48;;;19.60;99.90;;;;;;5005381;28;20045;-58
2023/09/08 07:08:42;;;;;;;13.05;11.65;;;19.70;99.90;;;;;;5006540;28;20046;-58
2023/09/08 07:11:08;;;;;;;13.00;11.60;;;19.80;99.90;;;;;;5007384;28;20589;-61
2023/09/08 07:13:34;;;;;;;12.52;10.90;;;19.90;99.90;;;;;;5003856;28;20045;-59
2023/09/08 07:16:00;;;;;;;12.55;10.77;;;20.10;99.90;;;;;;4990021;28;20033;-59
2023/09/08 07:18:25;;;;;;;12.63;11.13;;;20.20;99.90;;;;;;5005857;28;20099;-59
2023/09/08 07:20:51;;;;;;;14.23;11.15;;;20.30;99.90;;;;;;5005972;28;20545;-60
2023/09/08 07:23:20;;;;;;;15.65;11.77;;;20.40;99.90;;;;;;5007451;28;20038;-59
2023/09/08 07:25:49;;;;;;;14.80;10.82;;;20.50;99.90;;;;;;5007799;28;20060;-59
2023/09/08 07:28:16;;;;;;;12.80;11.50;;;20.60;99.90;;;;;;5002772;28;20627;-59
2023/09/08 07:30:42;;;;;;;12.50;9.32;;;20.70;99.90;;;;;;5006208;28;20033;-59
2023/09/08 07:33:08;;;;;;;17.05;10.63;;;20.80;99.90;;;;;;5015232;28;20697;-59
2023/09/08 07:35:39;;;;;;;11.27;10.07;;;20.90;99.90;;;;;;5006428;28;20543;-59
2023/09/08 07:38:05;;;;;;;11.15;9.10;;;21.00;99.90;;;;;;4983360;28;20107;-59
2023/09/08 07:40:32;;;;;;;11.13;9.93;;;21.00;99.90;;;;;;4987789;28;20042;-60
2023/09/08 07:42:58;;;;;;;12.93;10.02;;;21.20;99.90;;;;;;4998950;28;20107;-58
2023/09/08 07:45:24;;;;;;;14.45;10.13;;;21.30;99.90;;;;;;5002736;28;20042;-59
2023/09/08 07:47:51;;;;;;;10.50;9.40;;;21.40;99.90;;;;;;5002506;28;20099;-59
2023/09/08 07:50:25;;;;;;;9.52;8.38;;;21.50;99.90;;;;;;5008496;28;20587;-57
2023/09/08 07:52:52;;;;;;;11.43;9.07;;;21.60;99.90;;;;;;4992246;28;20038;-59
2023/09/08 07:55:19;;;;;;;10.60;9.30;;;21.80;99.90;;;;;;5021748;28;20523;-58
2023/09/08 07:57:45;;;;;;;10.50;9.45;;;21.90;99.90;;;;;;5003305;28;20569;-59
2023/09/08 08:00:12;;;;;;;9.30;8.35;;;21.90;99.90;;;;;;5001439;28;20042;-59
2023/09/08 08:02:42;;;;;;;12.00;8.55;;;22.10;99.90;;;;;;5002507;28;20047;-60
2023/09/08 08:05:07;;;;;;;11.23;7.53;;;22.20;99.90;;;;;;5020275;28;20248;-59
2023/09/08 08:07:33;;;;;;;10.93;8.10;;;22.30;99.90;;;;;;5009516;28;20050;-58
2023/09/08 08:09:59;;;;;;;11.68;9.18;;;22.40;99.90;;;;;;5004037;28;20664;-58
2023/09/08 08:12:25;;;;;;;9.32;8.32;;;22.50;99.90;;;;;;4991713;28;20499;-59
2023/09/08 08:14:51;;;;;;;10.30;8.63;;;22.60;99.90;;;;;;5006178;28;20698;-59
2023/09/08 08:17:19;;;;;;;10.85;8.35;;;22.60;99.90;;;;;;5006077;28;20504;-59
2023/09/08 08:19:47;;;;;;;14.57;8.38;;;22.70;99.90;;;;;;5009138;28;20056;-59
2023/09/08 08:22:12;;;;;;;10.50;7.97;;;22.80;99.90;;;;;;5011759;28;20124;-60
2023/09/08 08:24:38;;;;;;;10.02;8.13;;;23.00;99.90;;;;;;4988783;28;20041;-57
2023/09/08 08:27:04;;;;;;;9.57;8.55;;;23.10;99.90;;;;;;4989464;28;20052;-59
2023/09/08 08:29:30;;;;;;;9.80;8.50;;;23.10;99.90;;;;;;5007356;28;20095;-58
2023/09/08 08:31:56;;;;;;;10.93;8.35;;;23.20;99.90;;;;;;5013327;28;20378;-59
2023/09/08 08:34:22;;;;;;;11.93;8.18;;;23.30;99.90;;;;;;5007441;28;20049;-59
2023/09/08 08:36:47;;;;;;;10.55;8.05;;;23.40;99.90;;;;;;5008329;28;20056;-59
2023/09/08 08:39:13;;;;;;;9.38;8.38;;;23.50;99.90;;;;;;5009242;28;20477;-59
2023/09/08 08:42:22;;;;;;;13.07;7.93;;;23.60;99.90;;;;;;5011301;28;20076;-59
2023/09/08 08:44:49;;;;;;;12.93;8.82;;;23.70;99.90;;;;;;5010968;28;20486;-59
2023/09/08 08:47:16;;;;;;;10.77;8.77;;;23.80;99.90;;;;;;5006395;28;20133;-59
2023/09/08 08:49:46;;;;;;;9.50;8.00;;;23.90;99.90;;;;;;5004547;28;20396;-61
2023/09/08 08:52:13;;;;;;;10.90;7.93;;;24.00;99.90;;;;;;5014064;28;20117;-59
2023/09/08 08:54:39;;;;;;;11.10;8.93;;;24.10;99.90;;;;;;5002242;28;20455;-59
2023/09/08 08:57:06;;;;;;;11.27;7.78;;;24.20;99.90;;;;;;5006659;28;20556;-59
2023/09/08 08:59:32;;;;;;;10.75;8.43;;;24.30;99.90;;;;;;5023013;28;20049;-58
2023/09/08 09:02:03;;;;;;;9.07;7.57;;;24.30;99.90;;;;;;5008761;28;21875;-59
2023/09/08 09:04:29;;;;;;;9.50;7.20;;;24.50;99.90;;;;;;5017973;28;20046;-59
2023/09/08 09:06:55;;;;;;;9.88;7.53;;;24.60;99.90;;;;;;5006335;28;20053;-59
2023/09/08 09:09:22;;;;;;;9.88;7.60;;;24.60;99.90;;;;;;5006275;28;20453;-59
2023/09/08 09:11:47;;;;;;;9.27;7.38;;;24.80;99.90;;;;;;5021740;28;20041;-59
2023/09/08 09:14:13;;;;;;;10.23;7.28;;;24.90;99.90;;;;;;5010814;28;20223;-59
2023/09/08 09:16:43;;;;;;;10.00;6.97;;;25.00;99.90;;;;;;5005154;28;20496;-59
2023/09/08 09:19:09;;;;;;;8.73;6.18;;;25.10;99.90;;;;;;5006076;28;20118;-59
2023/09/08 09:21:50;;;;;;;8.70;6.85;;;25.30;99.90;;;;;;5005966;28;20128;-59
2023/09/08 09:24:33;;;;;;;8.57;7.20;;;25.40;99.90;;;;;;5001621;28;20043;-59
2023/09/08 09:27:00;;;;;;;10.10;7.15;;;25.50;99.90;;;;;;5003033;28;20459;-60
2023/09/08 09:29:27;;;;;;;9.20;6.70;;;25.60;99.90;;;;;;5004988;28;20103;-59
2023/09/08 09:31:57;;;;;;;7.78;6.57;;;25.80;99.90;;;;;;5001641;28;20040;-59
2023/09/08 09:34:23;;;;;;;8.35;5.80;;;25.90;99.90;;;;;;5006744;28;20052;-59
2023/09/08 09:36:52;;;;;;;7.72;6.38;;;26.10;99.90;;;;;;5001111;28;20488;-59
2023/09/08 09:39:23;;;;;;;8.98;5.93;;;26.20;99.60;;;;;;5006987;28;20033;-59
2023/09/08 09:41:53;;;;;;;7.78;6.20;;;26.30;98.90;;;;;;5005566;28;20100;-59
2023/09/08 09:44:20;;;;;;;8.30;5.95;;;26.40;99.00;;;;;;5003971;28;20037;-59
2023/09/08 09:46:47;;;;;;;11.52;6.10;;;26.40;98.90;;;;;;5016594;28;20128;-58
2023/09/08 09:49:14;;;;;;;7.60;5.47;;;26.60;99.00;;;;;;4983991;28;20092;-58
2023/09/08 09:51:44;;;;;;;8.48;6.28;;;26.80;98.90;;;;;;5000347;28;20060;-58
2023/09/08 09:54:11;;;;;;;8.23;5.82;;;26.80;98.50;;;;;;5001766;28;20270;-58
2023/09/08 09:56:39;;;;;;;6.82;5.90;;;26.90;98.30;;;;;;4984876;28;20045;-58
2023/09/08 09:59:07;;;;;;;6.38;5.50;;;27.00;98.60;;;;;;5006275;28;20041;-58
2023/09/08 10:01:34;;;;;;;7.75;5.80;;;27.20;98.50;;;;;;5001235;28;20120;-58
2023/09/08 10:04:02;;;;;;;7.03;6.32;;;27.30;98.50;;;;;;5002071;28;20042;-59
2023/09/08 10:06:32;;;;;;;7.63;5.82;;;27.40;97.90;;;;;;5002714;28;20045;-60
2023/09/08 10:09:01;;;;;;;8.68;6.00;;;27.40;97.80;;;;;;5003877;28;20053;-59
2023/09/08 10:11:30;;;;;;;11.13;6.60;;;27.50;97.90;;;;;;4999836;28;20034;-59
2023/09/08 10:14:00;;;;;;;7.50;6.25;;;27.60;97.80;;;;;;4987735;28;20056;-59
2023/09/08 10:16:28;;;;;;;11.52;5.05;;;27.70;97.80;;;;;;5005738;28;20038;-59
2023/09/08 10:18:57;;;;;;;7.22;5.53;;;27.80;97.60;;;;;;5001745;28;20061;-59
2023/09/08 10:21:26;;;;;;;8.20;6.03;;;27.90;97.30;;;;;;5005283;28;20030;-59
2023/09/08 10:24:18;;;;;;;9.98;5.80;;;27.90;97.00;;;;;;5004489;28;20505;-60
2023/09/08 10:26:50;;;;;;;6.03;5.47;;;28.00;97.30;;;;;;5005607;28;20073;-59
2023/09/08 10:29:17;;;;;;;;;;;28.10;97.10;;;;;;5004231;28;20040;-60
2023/09/08 10:31:45;;;;;;;7.82;5.28;;;28.20;96.70;;;;;;5006725;28;20024;-60
2023/09/08 10:34:11;;;;;;;7.10;5.38;;;28.20;96.90;;;;;;5001057;28;20034;-59
2023/09/08 10:36:38;;;;;;;9.60;5.72;;;28.30;96.70;;;;;;5004682;28;20069;-58
2023/09/08 10:39:35;;;;;;;6.15;5.55;;;28.40;96.70;;;;;;5004638;28;20038;-59
2023/09/08 10:42:16;;;;;;;6.82;5.47;;;28.50;96.60;;;;;;5031876;28;20036;-59
2023/09/08 10:44:51;;;;;;;6.63;5.63;;;28.70;96.50;;;;;;5024894;28;20489;-59
2023/09/08 10:47:24;;;;;;;9.68;6.20;;;28.80;96.50;;;;;;5005129;28;20568;-60
2023/09/08 10:49:53;;;;;;;7.55;5.78;;;28.80;96.20;;;;;;5007597;28;20050;-59
2023/09/08 10:52:21;;;;;;;8.85;6.20;;;28.80;96.30;;;;;;5008743;28;20042;-60
2023/09/08 10:54:55;;;;;;;6.68;5.78;;;28.90;96.00;;;;;;5003306;28;20037;-59
2023/09/08 10:57:23;;;;;;;9.38;5.93;;;29.00;96.30;;;;;;4987864;28;20468;-60
2023/09/08 11:00:04;;;;;;;8.90;5.63;;;29.10;96.10;;;;;;5002862;28;20520;-59
2023/09/08 11:02:41;;;;;;;8.48;5.60;;;29.00;95.40;;;;;;5017487;28;20068;-59
2023/09/08 11:05:09;;;;;;;10.20;5.28;;;29.10;95.80;;;;;;5005086;28;20049;-58
2023/09/08 11:07:38;;;;;;;7.00;5.43;;;29.20;95.80;;;;;;5000776;28;20777;-59
2023/09/08 11:10:08;;;;;;;7.68;5.20;;;29.40;95.60;;;;;;5001998;28;20054;-60
2023/09/08 11:12:34;;;;;;;7.15;4.95;;;29.50;95.60;;;;;;5003988;28;20526;-59
2023/09/08 11:15:05;;;;;;;6.32;4.82;;;29.60;95.60;;;;;;4987470;28;20042;-59
2023/09/08 11:17:31;;;;;;;7.05;5.35;;;29.70;95.40;;;;;;5008659;28;20120;-59
2023/09/08 11:19:57;;;;;;;6.82;5.18;;;29.70;95.00;;;;;;4987341;28;20046;-59
2023/09/08 11:22:25;;;;;;;7.45;5.50;;;29.80;94.80;;;;;;5002759;28;20044;-60
2023/09/08 11:24:56;;;;;;;10.80;5.22;;;29.80;94.70;;;;;;5006796;28;20068;-58
2023/09/08 11:27:23;;;;;;;5.95;5.35;;;29.80;94.60;;;;;;5002179;28;20541;-59
2023/09/08 11:29:50;;;;;;;8.70;5.85;;;29.90;94.60;;;;;;4987767;28;20060;-59
2023/09/08 11:32:15;;;;;;;6.18;5.57;;;30.00;94.30;;;;;;4999427;28;20135;-59
2023/09/08 11:34:41;;;;;;;7.25;4.75;;;30.00;94.30;;;;;;5002066;28;20504;-60
2023/09/08 11:37:13;;;;;;;7.05;5.07;;;30.10;94.20;;;;;;5006259;28;20052;-60
2023/09/08 11:39:40;;;;;;;7.18;5.03;;;30.20;94.10;;;;;;5001484;28;20050;-59
2023/09/08 11:42:08;;;;;;;8.52;5.28;;;30.20;94.00;;;;;;5001007;28;20042;-59
2023/09/08 11:44:35;;;;;;;6.68;5.30;;;30.40;93.70;;;;;;4999368;28;20042;-59
2023/09/08 11:47:03;;;;;;;9.10;4.85;;;30.40;93.60;;;;;;4989403;28;20091;-59
2023/09/08 11:49:34;;;;;;;7.65;5.38;;;30.50;93.20;;;;;;4986204;28;20073;-59
2023/09/08 11:52:00;;;;;;;6.22;4.95;;;30.60;93.10;;;;;;5016747;28;20034;-59
2023/09/08 11:54:26;;;;;;;7.57;4.65;;;30.60;93.00;;;;;;5005139;28;20512;-59
2023/09/08 11:56:52;;;;;;;7.60;5.70;;;30.70;93.40;;;;;;5003651;28;20045;-60
2023/09/08 11:59:19;;;;;;;8.73;5.40;;;30.70;93.10;;;;;;5003572;28;20604;-59
2023/09/08 12:01:45;;;;;;;7.07;5.18;;;30.80;93.00;;;;;;5000952;28;20053;-59
2023/09/08 12:04:19;;;;;;;8.05;4.90;;;31.00;93.00;;;;;;5000988;28;20180;-60
2023/09/08 12:06:45;;;;;;;7.22;5.15;;;31.10;93.00;;;;;;4986998;28;20037;-60
2023/09/08 12:09:11;;;;;;;9.40;5.30;;;31.20;92.80;;;;;;4999413;28;20546;-59
2023/09/08 12:11:41;;;;;;;6.15;5.20;;;31.30;92.80;;;;;;5000417;28;20040;-60
2023/09/08 12:14:09;;;;;;;5.22;4.50;;;31.20;92.40;;;;;;4987311;28;20126;-59
2023/09/08 12:16:35;;;;;;;5.25;4.70;;;31.30;92.60;;;;;;5014802;28;20049;-59
2023/09/08 12:19:01;;;;;;;7.30;4.82;;;31.40;92.30;;;;;;5001193;28;20046;-59
2023/09/08 12:21:26;;;;;;;5.75;4.60;;;31.50;91.90;;;;;;5020347;28;20183;-59
2023/09/08 12:23:53;;;;;;;7.13;4.20;;;31.50;92.00;;;;;;5002866;28;20041;-59
2023/09/08 12:26:20;;;;;;;8.35;4.45;;;31.60;91.70;;;;;;4983149;28;20050;-59
2023/09/08 12:28:46;;;;;;;5.05;4.55;;;31.60;91.60;;;;;;5001032;28;20050;-59
2023/09/08 12:31:17;;;;;;;5.93;4.63;;;31.70;91.70;;;;;;5015110;28;20133;-58
2023/09/08 12:33:43;;;;;;;5.60;4.65;;;31.80;91.50;;;;;;5019004;28;20034;-59
2023/09/08 12:36:17;;;;;;;10.90;4.95;;;31.90;91.30;;;;;;4988186;28;20042;-59